Time;durP1;ratioP1;P1;durP2;ratioP2;P2;SDS_P1;SDS_P2;PMS_P1;PMS_P2;Temp;Humidity;BMP_temperature;BMP_pressure;BME280_temperature;BME280_humidity;BME280_pressure;Samples;Min_cycle;Max_cycle;Signal;HPM_P1;HPM_P2
2021/09/03 00:02:18;;;;;;;8.80;6.50;;;;;;;;;;4974177;28;20047;-68
2021/09/03 00:04:44;;;;;;;9.85;6.07;;;;;;;;;;4974376;28;20531;-69
2021/09/03 00:07:11;;;;;;;9.93;6.47;;;;;;;;;;4973575;28;20457;-69
2021/09/03 00:09:37;;;;;;;9.85;5.90;;;;;;;;;;4973002;28;20142;-69
2021/09/03 00:12:05;;;;;;;8.90;6.10;;;;;;;;;;4967506;28;20031;-69
2021/09/03 00:14:31;;;;;;;9.05;6.03;;;;;;;;;;4959533;28;20026;-69
2021/09/03 00:16:57;;;;;;;8.10;5.88;;;;;;;;;;4973970;28;20024;-69
2021/09/03 00:19:23;;;;;;;10.73;6.40;;;;;;;;;;4974581;28;20037;-69
2021/09/03 00:21:49;;;;;;;11.77;6.28;;;;;;;;;;4972225;28;20360;-69
2021/09/03 00:24:15;;;;;;;9.52;6.47;;;;;;;;;;4971872;28;20038;-70
2021/09/03 00:26:41;;;;;;;9.48;5.88;;;;;;;;;;4980245;28;20022;-70
2021/09/03 00:29:09;;;;;;;13.23;6.28;;;;;;;;;;4974262;28;20033;-69
2021/09/03 00:31:35;;;;;;;9.02;5.82;;;;;;;;;;4970973;28;20065;-70
2021/09/03 00:34:01;;;;;;;8.55;6.40;;;;;;;;;;4973946;28;20452;-70
2021/09/03 00:36:27;;;;;;;8.10;5.90;;;;;;;;;;4973925;28;20027;-70
2021/09/03 00:38:53;;;;;;;9.18;6.13;;;;;;;;;;4973579;28;20585;-69
2021/09/03 00:41:19;;;;;;;8.18;6.53;;;;;;;;;;4971438;28;20043;-64
2021/09/03 00:43:46;;;;;;;7.93;6.38;;;;;;;;;;4973276;28;20480;-64
2021/09/03 00:46:19;;;;;;;9.05;6.28;;;;;;;;;;4969253;28;20481;-72
2021/09/03 00:48:45;;;;;;;10.70;6.47;;;;;;;;;;4962538;28;20026;-69
2021/09/03 00:51:11;;;;;;;10.60;6.45;;;;;;;;;;4970936;28;20027;-69
2021/09/03 00:53:37;;;;;;;9.02;6.53;;;;;;;;;;4963813;28;20026;-69
2021/09/03 00:56:03;;;;;;;9.23;6.47;;;;;;;;;;4952354;28;20506;-69
2021/09/03 00:58:29;;;;;;;10.68;6.80;;;;;;;;;;4971571;28;20090;-66
2021/09/03 01:00:55;;;;;;;11.52;7.10;;;;;;;;;;4965841;28;20022;-69
2021/09/03 01:03:21;;;;;;;10.48;6.97;;;;;;;;;;4963776;28;20035;-69
2021/09/03 01:05:48;;;;;;;10.38;6.50;;;;;;;;;;4960979;28;20033;-67
2021/09/03 01:08:27;;;;;;;8.55;5.95;;;;;;;;;;4981280;28;20037;-70
2021/09/03 01:10:56;;;;;;;9.20;6.38;;;;;;;;;;4958183;28;20484;-66
2021/09/03 01:13:22;;;;;;;9.52;6.90;;;;;;;;;;4973540;28;20064;-65
2021/09/03 01:15:48;;;;;;;10.05;6.78;;;;;;;;;;4962462;28;20417;-70
2021/09/03 01:18:16;;;;;;;10.30;6.70;;;;;;;;;;4975891;28;20027;-71
2021/09/03 01:20:43;;;;;;;10.20;6.47;;;;;;;;;;4972271;28;20078;-69
2021/09/03 01:23:11;;;;;;;11.13;6.13;;;;;;;;;;4971366;28;20485;-69
2021/09/03 01:25:37;;;;;;;9.23;6.90;;;;;;;;;;4973541;28;20105;-70
2021/09/03 01:28:03;;;;;;;9.38;6.60;;;;;;;;;;4975545;28;20027;-70
2021/09/03 01:30:30;;;;;;;8.85;6.53;;;;;;;;;;4972103;28;20054;-69
2021/09/03 01:32:56;;;;;;;9.50;6.50;;;;;;;;;;4972796;28;20047;-69
2021/09/03 01:35:22;;;;;;;8.93;7.00;;;;;;;;;;4973141;28;20035;-64
2021/09/03 01:37:51;;;;;;;11.93;6.60;;;;;;;;;;4978481;28;20023;-70
2021/09/03 01:40:22;;;;;;;10.52;6.68;;;;;;;;;;4991198;28;20082;-66
2021/09/03 01:42:48;;;;;;;11.13;7.05;;;;;;;;;;4972852;28;20035;-69
2021/09/03 01:45:14;;;;;;;9.85;6.72;;;;;;;;;;4971827;28;20085;-70
2021/09/03 01:47:40;;;;;;;10.13;7.32;;;;;;;;;;4973388;28;20027;-69
2021/09/03 01:50:06;;;;;;;9.07;6.47;;;;;;;;;;4975235;28;20113;-65
2021/09/03 01:52:32;;;;;;;9.13;7.22;;;;;;;;;;4979264;28;20041;-65
2021/09/03 01:54:58;;;;;;;9.73;6.72;;;;;;;;;;4983847;28;20401;-70
2021/09/03 01:57:25;;;;;;;9.30;6.28;;;;;;;;;;4969620;28;20469;-69
2021/09/03 01:59:51;;;;;;;10.60;6.68;;;;;;;;;;4975003;28;20042;-69
2021/09/03 02:02:17;;;;;;;9.43;6.38;;;;;;;;;;4969670;28;20038;-65
2021/09/03 02:04:43;;;;;;;9.75;6.00;;;;;;;;;;4965383;28;20062;-65
2021/09/03 02:07:09;;;;;;;10.80;6.55;;;;;;;;;;4974611;28;20094;-70
2021/09/03 02:09:35;;;;;;;8.00;5.90;;;;;;;;;;4976605;28;20023;-66
2021/09/03 02:12:01;;;;;;;7.18;5.72;;;;;;;;;;4974489;28;20115;-65
2021/09/03 02:14:29;;;;;;;8.35;5.80;;;;;;;;;;4970043;28;20035;-67
2021/09/03 02:16:55;;;;;;;9.65;6.03;;;;;;;;;;4976239;28;20040;-64
2021/09/03 02:19:22;;;;;;;10.30;6.20;;;;;;;;;;4979895;28;20053;-70
2021/09/03 02:21:48;;;;;;;7.45;5.82;;;;;;;;;;4974543;28;20473;-70
2021/09/03 02:24:14;;;;;;;8.23;5.68;;;;;;;;;;4975465;28;20121;-68
2021/09/03 02:26:40;;;;;;;10.90;5.90;;;;;;;;;;4976160;28;20026;-67
2021/09/03 02:29:20;;;;;;;9.00;6.00;;;;;;;;;;4985148;28;20029;-71
2021/09/03 02:31:48;;;;;;;7.43;5.57;;;;;;;;;;4977815;28;20130;-64
2021/09/03 02:34:14;;;;;;;9.48;6.30;;;;;;;;;;4974966;28;20043;-70
2021/09/03 02:37:04;;;;;;;8.88;5.97;;;;;;;;;;4977101;28;20050;-70
2021/09/03 02:39:30;;;;;;;9.55;6.03;;;;;;;;;;4966167;28;20062;-65
2021/09/03 02:41:56;;;;;;;13.88;6.55;;;;;;;;;;4974102;28;20034;-68
2021/09/03 02:44:22;;;;;;;11.65;7.00;;;;;;;;;;4964830;28;20069;-65
2021/09/03 02:46:48;;;;;;;11.10;6.35;;;;;;;;;;4975101;28;20081;-69
2021/09/03 02:49:14;;;;;;;8.13;6.43;;;;;;;;;;4975967;28;20034;-69
2021/09/03 02:51:41;;;;;;;7.93;6.30;;;;;;;;;;4981850;28;20027;-71
2021/09/03 02:54:08;;;;;;;11.07;6.70;;;;;;;;;;4958148;28;20122;-69
2021/09/03 02:56:34;;;;;;;8.30;5.93;;;;;;;;;;4967976;28;20499;-68
2021/09/03 02:59:00;;;;;;;10.02;6.50;;;;;;;;;;4975304;28;20038;-70
2021/09/03 03:01:26;;;;;;;10.25;7.15;;;;;;;;;;4965907;28;20053;-68
2021/09/03 03:03:52;;;;;;;10.18;6.68;;;;;;;;;;4969685;28;20202;-68
2021/09/03 03:06:18;;;;;;;10.25;6.60;;;;;;;;;;4981274;28;20613;-69
2021/09/03 03:08:44;;;;;;;9.65;6.60;;;;;;;;;;4975555;28;20131;-64
2021/09/03 03:11:10;;;;;;;9.60;6.57;;;;;;;;;;4973766;28;20484;-68
2021/09/03 03:13:36;;;;;;;10.13;7.15;;;;;;;;;;4975372;28;20054;-70
2021/09/03 03:16:03;;;;;;;11.02;7.43;;;;;;;;;;4964026;28;20392;-69
2021/09/03 03:18:29;;;;;;;11.50;7.10;;;;;;;;;;4974315;28;20097;-68
2021/09/03 03:20:55;;;;;;;10.45;6.90;;;;;;;;;;4974112;28;20061;-66
2021/09/03 03:23:21;;;;;;;10.55;7.65;;;;;;;;;;4973456;28;20050;-69
2021/09/03 03:25:48;;;;;;;11.15;6.93;;;;;;;;;;4975113;28;20046;-69
2021/09/03 03:28:14;;;;;;;10.40;6.88;;;;;;;;;;4974480;28;20374;-66
2021/09/03 03:30:40;;;;;;;11.27;7.65;;;;;;;;;;4973404;28;20412;-65
2021/09/03 03:33:06;;;;;;;12.73;6.88;;;;;;;;;;4975161;28;20027;-69
2021/09/03 03:35:32;;;;;;;13.50;7.18;;;;;;;;;;4973227;28;20027;-68
2021/09/03 03:37:59;;;;;;;12.30;7.43;;;;;;;;;;4980292;28;20030;-69
2021/09/03 03:40:27;;;;;;;12.90;8.00;;;;;;;;;;4955627;28;20046;-69
2021/09/03 03:42:53;;;;;;;17.38;8.27;;;;;;;;;;4974822;28;20505;-70
2021/09/03 03:45:19;;;;;;;11.30;7.60;;;;;;;;;;4969104;28;20042;-69
2021/09/03 03:47:45;;;;;;;11.77;7.70;;;;;;;;;;4971294;28;20026;-69
2021/09/03 03:50:12;;;;;;;10.05;6.57;;;;;;;;;;4975333;28;20058;-70
2021/09/03 03:52:38;;;;;;;10.63;6.85;;;;;;;;;;4972869;28;20054;-67
2021/09/03 03:55:04;;;;;;;8.68;7.18;;;;;;;;;;4969859;28;20097;-70
2021/09/03 03:57:30;;;;;;;9.52;7.10;;;;;;;;;;4980150;28;20029;-68
2021/09/03 03:59:56;;;;;;;10.40;6.57;;;;;;;;;;4972248;28;20507;-70
2021/09/03 04:02:22;;;;;;;10.27;6.80;;;;;;;;;;4969358;28;20123;-70
2021/09/03 04:04:49;;;;;;;9.00;6.70;;;;;;;;;;4972881;28;20034;-70
2021/09/03 04:07:16;;;;;;;13.13;6.72;;;;;;;;;;4973977;28;20507;-70
2021/09/03 04:09:43;;;;;;;10.60;7.03;;;;;;;;;;4975972;28;20027;-66
2021/09/03 04:12:09;;;;;;;9.65;6.57;;;;;;;;;;4954017;28;20772;-69
2021/09/03 04:14:35;;;;;;;7.88;6.60;;;;;;;;;;4971701;28;20019;-70
2021/09/03 04:17:01;;;;;;;9.30;6.88;;;;;;;;;;4982978;28;20578;-67
2021/09/03 04:19:27;;;;;;;14.25;7.72;;;;;;;;;;4962318;28;20031;-69
2021/09/03 04:21:54;;;;;;;12.27;7.78;;;;;;;;;;4969651;28;20027;-66
2021/09/03 04:24:20;;;;;;;10.80;7.10;;;;;;;;;;4973938;28;20038;-68
2021/09/03 04:26:51;;;;;;;12.18;6.53;;;;;;;;;;4977066;28;20034;-70
2021/09/03 04:29:17;;;;;;;8.65;6.53;;;;;;;;;;4973897;28;20033;-65
2021/09/03 04:31:43;;;;;;;10.05;6.40;;;;;;;;;;4959216;28;20118;-64
2021/09/03 04:34:09;;;;;;;10.15;6.80;;;;;;;;;;4973467;28;20030;-68
2021/09/03 04:36:35;;;;;;;13.00;6.68;;;;;;;;;;4972612;28;20086;-71
2021/09/03 04:39:01;;;;;;;19.90;6.72;;;;;;;;;;4973605;28;20030;-67
2021/09/03 04:41:27;;;;;;;14.65;6.00;;;;;;;;;;4971509;28;20034;-70
2021/09/03 04:43:53;;;;;;;10.65;6.30;;;;;;;;;;4971904;28;20154;-70
2021/09/03 04:46:19;;;;;;;9.52;6.13;;;;;;;;;;4967785;28;20113;-70
2021/09/03 04:48:47;;;;;;;8.95;5.78;;;;;;;;;;4971661;28;20459;-64
2021/09/03 04:51:13;;;;;;;6.95;5.53;;;;;;;;;;4972893;28;20100;-69
2021/09/03 04:53:40;;;;;;;11.20;6.13;;;;;;;;;;4967132;28;20016;-65
2021/09/03 04:56:16;;;;;;;8.20;5.82;;;;;;;;;;4976152;28;20030;-71
2021/09/03 04:58:44;;;;;;;11.45;6.13;;;;;;;;;;4984332;28;20439;-71
2021/09/03 05:01:11;;;;;;;7.40;5.90;;;;;;;;;;4979141;28;20027;-71
2021/09/03 05:03:37;;;;;;;8.85;5.25;;;;;;;;;;4971464;28;20452;-69
2021/09/03 05:06:03;;;;;;;7.50;5.40;;;;;;;;;;4962604;28;20366;-69
2021/09/03 05:08:35;;;;;;;8.23;5.70;;;;;;;;;;4974625;28;20081;-72
2021/09/03 05:11:02;;;;;;;9.52;5.75;;;;;;;;;;4952958;28;20031;-70
2021/09/03 05:13:28;;;;;;;8.85;5.68;;;;;;;;;;4963116;28;20025;-70
2021/09/03 05:15:54;;;;;;;8.90;5.13;;;;;;;;;;4963089;28;20489;-69
2021/09/03 05:18:20;;;;;;;9.10;5.70;;;;;;;;;;4973085;28;20026;-69
2021/09/03 05:20:46;;;;;;;7.22;5.38;;;;;;;;;;4973280;28;20038;-68
2021/09/03 05:23:12;;;;;;;9.63;5.32;;;;;;;;;;4968902;28;20187;-60
2021/09/03 05:25:38;;;;;;;12.90;5.70;;;;;;;;;;4971261;28;20031;-62
2021/09/03 05:28:04;;;;;;;9.38;5.40;;;;;;;;;;4973254;28;20404;-65
2021/09/03 05:30:30;;;;;;;6.30;5.07;;;;;;;;;;4971006;28;20040;-78
2021/09/03 05:32:56;;;;;;;11.50;5.55;;;;;;;;;;4973198;28;20046;-73
2021/09/03 05:35:26;;;;;;;8.38;5.43;;;;;;;;;;4969636;28;20033;-68
2021/09/03 05:38:04;;;;;;;7.82;5.40;;;;;;;;;;4965722;28;20499;-75
2021/09/03 05:43:29;;;;;;;8.13;4.90;;;;;;;;;;4906936;29;20196;-66
2021/09/03 05:45:55;;;;;;;9.02;4.97;;;;;;;;;;4911295;29;20032;-67
2021/09/03 05:48:21;;;;;;;16.17;5.22;;;;;;;;;;4913184;29;20582;-66
2021/09/03 05:50:47;;;;;;;8.32;5.05;;;;;;;;;;4913111;29;20028;-66
2021/09/03 05:53:13;;;;;;;11.00;5.20;;;;;;;;;;4912918;29;20055;-68
2021/09/03 05:55:39;;;;;;;9.68;5.20;;;;;;;;;;4913141;29;20164;-67
2021/09/03 05:58:05;;;;;;;7.38;5.22;;;;;;;;;;4912748;29;20032;-66
2021/09/03 06:00:31;;;;;;;9.77;5.60;;;;;;;;;;4912375;29;20075;-66
2021/09/03 06:02:58;;;;;;;16.77;6.45;;;;;;;;;;4913297;29;20043;-69
2021/09/03 06:05:25;;;;;;;11.00;5.90;;;;;;;;;;4913080;29;20040;-71
2021/09/03 06:07:51;;;;;;;11.18;5.80;;;;;;;;;;4912600;29;20067;-70
2021/09/03 06:10:17;;;;;;;10.18;5.88;;;;;;;;;;4916606;29;21947;-67
2021/09/03 06:12:43;;;;;;;10.75;5.70;;;;;;;;;;4912521;29;20053;-70
2021/09/03 06:15:10;;;;;;;8.57;5.82;;;;;;;;;;4912171;29;20103;-69
2021/09/03 06:17:38;;;;;;;10.60;6.15;;;;;;;;;;4912471;29;20032;-65
2021/09/03 06:20:05;;;;;;;18.15;6.32;;;;;;;;;;4946499;28;20156;-66
2021/09/03 06:22:31;;;;;;;19.55;7.32;;;;;;;;;;4970764;28;20522;-72
2021/09/03 06:24:57;;;;;;;9.27;5.72;;;;;;;;;;4969447;28;20026;-71
2021/09/03 06:27:24;;;;;;;10.75;6.45;;;;;;;;;;4971271;28;20023;-65
2021/09/03 06:29:52;;;;;;;12.40;6.00;;;;;;;;;;4970348;28;20022;-68
2021/09/03 06:32:20;;;;;;;10.35;5.85;;;;;;;;;;4970628;28;20074;-69
2021/09/03 06:34:47;;;;;;;9.02;6.30;;;;;;;;;;4970794;28;20046;-66
2021/09/03 06:37:16;;;;;;;19.13;14.10;;;;;;;;;;4974915;28;20031;-72
2021/09/03 06:39:42;;;;;;;10.18;7.80;;;;;;;;;;4975775;28;20098;-63
2021/09/03 06:42:09;;;;;;;10.75;6.32;;;;;;;;;;4973770;28;20030;-76
2021/09/03 06:44:48;;;;;;;;;;;;;;;;;;;;;
2021/09/03 06:47:16;;;;;;;13.75;7.25;;;;;;;;;;4972121;28;20023;-77
2021/09/03 06:49:44;;;;;;;13.48;7.88;;;;;;;;;;4974509;28;20023;-84
2021/09/03 06:52:12;;;;;;;9.60;7.20;;;;;;;;;;4974083;28;20113;-70
2021/09/03 06:54:38;;;;;;;9.98;7.25;;;;;;;;;;4974258;28;20023;-66
2021/09/03 06:57:05;;;;;;;11.55;7.55;;;;;;;;;;4974817;28;20051;-68
2021/09/03 06:59:31;;;;;;;10.65;7.30;;;;;;;;;;4974745;28;20034;-69
2021/09/03 07:01:57;;;;;;;10.13;7.28;;;;;;;;;;4973743;28;20029;-64
2021/09/03 07:04:23;;;;;;;8.93;6.72;;;;;;;;;;4974287;28;20042;-64
2021/09/03 07:06:50;;;;;;;13.32;8.30;;;;;;;;;;4974131;28;20106;-73
2021/09/03 07:09:16;;;;;;;10.55;7.60;;;;;;;;;;4970323;28;20051;-71
2021/09/03 07:11:42;;;;;;;11.55;8.07;;;;;;;;;;4974398;28;20036;-63
2021/09/03 07:14:08;;;;;;;10.98;6.75;;;;;;;;;;4974854;28;20445;-67
2021/09/03 07:16:35;;;;;;;8.48;6.32;;;;;;;;;;4977304;28;20085;-70
2021/09/03 07:19:03;;;;;;;8.43;6.10;;;;;;;;;;4981975;28;20019;-67
2021/09/03 07:21:30;;;;;;;8.25;6.40;;;;;;;;;;4978224;28;20035;-68
2021/09/03 07:23:56;;;;;;;14.02;6.88;;;;;;;;;;4974255;28;20035;-70
2021/09/03 07:26:25;;;;;;;11.52;6.38;;;;;;;;;;4973142;28;20477;-72
2021/09/03 07:28:52;;;;;;;10.50;5.88;;;;;;;;;;4973695;28;20460;-71
2021/09/03 07:31:25;;;;;;;10.77;5.95;;;;;;;;;;4972632;28;20121;-71
2021/09/03 07:33:54;;;;;;;9.10;5.60;;;;;;;;;;4973741;28;20027;-71
2021/09/03 07:36:20;;;;;;;10.90;5.85;;;;;;;;;;4974797;28;20027;-71
2021/09/03 07:38:46;;;;;;;8.93;6.40;;;;;;;;;;4970646;28;20026;-67
2021/09/03 07:41:12;;;;;;;14.98;6.07;;;;;;;;;;4974616;28;20392;-67
2021/09/03 07:43:38;;;;;;;8.85;6.07;;;;;;;;;;4974234;28;20049;-67
2021/09/03 07:46:04;;;;;;;11.82;6.00;;;;;;;;;;4974586;28;20041;-66
2021/09/03 07:48:31;;;;;;;9.55;6.05;;;;;;;;;;4973618;28;20081;-67
2021/09/03 07:50:57;;;;;;;8.75;5.57;;;;;;;;;;4960409;28;20023;-69
2021/09/03 07:53:23;;;;;;;9.25;5.97;;;;;;;;;;4971881;28;20497;-66
2021/09/03 07:55:49;;;;;;;7.60;5.55;;;;;;;;;;4975884;28;20486;-67
2021/09/03 07:58:15;;;;;;;6.13;4.88;;;;;;;;;;4974348;28;20488;-66
2021/09/03 08:00:41;;;;;;;10.35;4.80;;;;;;;;;;4974155;28;20118;-67
2021/09/03 08:03:08;;;;;;;11.10;4.45;;;;;;;;;;4972368;28;20039;-69
2021/09/03 08:05:34;;;;;;;8.13;4.63;;;;;;;;;;4968625;28;20027;-67
2021/09/03 08:08:01;;;;;;;5.80;4.13;;;;;;;;;;4973394;28;20505;-66
2021/09/03 08:10:31;;;;;;;6.68;4.65;;;;;;;;;;4974498;28;20477;-68
2021/09/03 08:12:57;;;;;;;6.10;3.90;;;;;;;;;;4973806;28;20027;-69
2021/09/03 08:15:23;;;;;;;8.25;3.88;;;;;;;;;;4970397;28;20029;-71
2021/09/03 08:18:52;;;;;;;9.25;4.18;;;;;;;;;;4972771;28;20030;-73
2021/09/03 08:20:47;;;;;;;4.38;3.25;;;;;;;;;;4960846;28;20648;-72
2021/09/03 08:23:14;;;;;;;7.78;3.70;;;;;;;;;;4971229;28;20046;-70
2021/09/03 08:25:52;;;;;;;;;;;;;;;;;;;;;
2021/09/03 08:28:25;;;;;;;7.70;3.63;;;;;;;;;;4987487;28;20082;-69
2021/09/03 08:31:00;;;;;;;5.00;3.50;;;;;;;;;;4968328;28;20058;-67
2021/09/03 08:33:28;;;;;;;6.22;4.13;;;;;;;;;;4974156;28;20109;-72
2021/09/03 08:35:54;;;;;;;5.35;4.18;;;;;;;;;;4976112;28;20504;-74
2021/09/03 08:38:20;;;;;;;7.63;4.13;;;;;;;;;;4976950;28;20042;-72
2021/09/03 08:40:48;;;;;;;6.63;3.40;;;;;;;;;;4970231;28;20032;-77
2021/09/03 08:43:15;;;;;;;6.82;3.63;;;;;;;;;;4969922;28;20526;-73
2021/09/03 08:45:44;;;;;;;5.95;3.50;;;;;;;;;;4973282;28;20492;-73
2021/09/03 08:48:10;;;;;;;6.47;3.45;;;;;;;;;;4955417;28;20046;-70
2021/09/03 08:50:42;;;;;;;7.03;3.20;;;;;;;;;;4971318;28;20023;-76
2021/09/03 08:53:24;;;;;;;5.10;3.55;;;;;;;;;;4953616;28;20089;-70
2021/09/03 08:55:51;;;;;;;5.22;3.60;;;;;;;;;;4965285;28;20031;-72
2021/09/03 08:58:18;;;;;;;5.35;3.58;;;;;;;;;;4962067;28;20019;-69
2021/09/03 09:00:44;;;;;;;8.40;3.65;;;;;;;;;;4965147;28;20039;-71
2021/09/03 09:03:14;;;;;;;6.38;3.17;;;;;;;;;;4964838;28;20466;-62
2021/09/03 09:05:54;;;;;;;6.95;3.50;;;;;;;;;;4973072;28;20489;-67
2021/09/03 09:08:21;;;;;;;4.55;3.13;;;;;;;;;;4965050;28;20062;-68
2021/09/03 09:10:51;;;;;;;4.95;3.45;;;;;;;;;;4962714;28;20023;-69
2021/09/03 09:13:18;;;;;;;6.80;3.72;;;;;;;;;;4967203;28;20089;-68
2021/09/03 09:15:56;;;;;;;4.30;3.17;;;;;;;;;;4962993;28;20057;-71
2021/09/03 09:18:45;;;;;;;5.28;3.20;;;;;;;;;;4971165;28;20019;-71
2021/09/03 09:21:17;;;;;;;5.57;3.33;;;;;;;;;;4989944;28;20034;-73
2021/09/03 09:23:45;;;;;;;5.18;3.28;;;;;;;;;;4976115;28;20026;-65
2021/09/03 09:26:11;;;;;;;26.88;4.32;;;;;;;;;;4965123;28;20034;-73
2021/09/03 09:28:39;;;;;;;4.90;2.90;;;;;;;;;;4971217;28;20038;-64
2021/09/03 09:31:05;;;;;;;7.35;3.00;;;;;;;;;;4971729;28;20129;-74
2021/09/03 09:33:32;;;;;;;24.88;14.52;;;;;;;;;;4971705;28;20035;-73
2021/09/03 09:35:59;;;;;;;9.02;3.65;;;;;;;;;;4961740;28;20019;-70
2021/09/03 09:38:27;;;;;;;3.35;2.65;;;;;;;;;;4973069;28;20503;-66
2021/09/03 09:40:57;;;;;;;3.25;2.70;;;;;;;;;;4971383;28;20076;-73
2021/09/03 09:43:37;;;;;;;3.88;2.70;;;;;;;;;;4972014;28;20101;-69
2021/09/03 09:46:09;;;;;;;7.93;3.35;;;;;;;;;;4964399;28;20015;-73
2021/09/03 09:48:52;;;;;;;6.20;3.28;;;;;;;;;;4965589;28;20023;-71
2021/09/03 09:51:22;;;;;;;5.80;3.10;;;;;;;;;;4966964;28;20023;-72
2021/09/03 09:53:55;;;;;;;5.82;2.75;;;;;;;;;;4950662;28;20389;-72
2021/09/03 09:56:22;;;;;;;7.18;3.00;;;;;;;;;;4962523;28;20431;-69
2021/09/03 09:58:54;;;;;;;4.22;2.47;;;;;;;;;;4964926;28;20114;-75
2021/09/03 10:01:21;;;;;;;4.30;2.55;;;;;;;;;;4969173;28;20037;-71
2021/09/03 10:03:48;;;;;;;3.50;2.88;;;;;;;;;;4959648;28;20039;-72
2021/09/03 10:06:18;;;;;;;6.75;3.20;;;;;;;;;;4963102;28;20035;-69
2021/09/03 10:08:46;;;;;;;5.25;3.20;;;;;;;;;;4962719;28;20039;-73
2021/09/03 10:11:18;;;;;;;5.50;3.00;;;;;;;;;;4969037;28;20023;-62
2021/09/03 10:13:44;;;;;;;12.47;3.70;;;;;;;;;;4969281;28;20057;-70
2021/09/03 10:16:11;;;;;;;5.90;3.10;;;;;;;;;;4957332;28;20437;-66
2021/09/03 10:18:41;;;;;;;3.45;2.90;;;;;;;;;;4971541;28;20485;-69
2021/09/03 10:21:08;;;;;;;5.07;3.00;;;;;;;;;;4967730;28;20035;-66
2021/09/03 10:23:54;;;;;;;8.57;5.30;;;;;;;;;;4974557;28;20033;-73
2021/09/03 10:26:29;;;;;;;6.05;3.85;;;;;;;;;;4975605;28;20034;-72
2021/09/03 10:29:13;;;;;;;7.53;2.72;;;;;;;;;;4972609;28;20413;-66
2021/09/03 10:32:10;;;;;;;21.88;3.85;;;;;;;;;;4972466;28;20495;-72
2021/09/03 10:34:47;;;;;;;3.45;2.70;;;;;;;;;;4974213;28;20034;-68
2021/09/03 10:37:13;;;;;;;5.43;2.85;;;;;;;;;;4974932;28;20035;-69
2021/09/03 10:39:42;;;;;;;5.53;2.58;;;;;;;;;;4974514;28;20105;-69
2021/09/03 10:42:09;;;;;;;5.95;2.75;;;;;;;;;;4972300;28;20058;-63
2021/09/03 10:44:53;;;;;;;9.55;3.72;;;;;;;;;;4965093;28;20046;-68
2021/09/03 10:47:32;;;;;;;3.92;2.90;;;;;;;;;;4974150;28;20030;-64
2021/09/03 10:49:59;;;;;;;5.18;2.90;;;;;;;;;;4969652;28;20023;-68
2021/09/03 10:52:25;;;;;;;4.72;2.95;;;;;;;;;;4982163;28;20043;-68
2021/09/03 10:54:51;;;;;;;4.18;2.80;;;;;;;;;;4972184;28;20417;-67
2021/09/03 10:57:17;;;;;;;3.17;2.80;;;;;;;;;;4970928;28;20031;-65
2021/09/03 11:00:02;;;;;;;5.85;3.00;;;;;;;;;;4969229;28;20030;-80
2021/09/03 11:02:28;;;;;;;6.15;3.00;;;;;;;;;;4971750;28;20169;-65
2021/09/03 11:05:09;;;;;;;4.78;2.70;;;;;;;;;;4975142;28;20493;-73
2021/09/03 11:07:45;;;;;;;7.82;2.50;;;;;;;;;;4974692;28;20102;-74
2021/09/03 11:10:19;;;;;;;4.43;2.30;;;;;;;;;;4974823;28;20081;-73
2021/09/03 11:12:49;;;;;;;3.40;2.80;;;;;;;;;;4974931;28;20037;-75
2021/09/03 11:15:15;;;;;;;4.75;2.85;;;;;;;;;;4974061;28;20030;-73
2021/09/03 11:17:41;;;;;;;5.20;2.97;;;;;;;;;;4975199;28;20031;-71
2021/09/03 11:20:08;;;;;;;4.18;3.10;;;;;;;;;;4974124;28;20027;-63
2021/09/03 11:22:37;;;;;;;10.95;3.10;;;;;;;;;;4972600;28;20041;-67
2021/09/03 11:25:04;;;;;;;4.38;2.83;;;;;;;;;;4971965;28;20051;-69
2021/09/03 11:27:31;;;;;;;4.10;3.03;;;;;;;;;;4974592;28;20074;-62
2021/09/03 11:30:00;;;;;;;10.70;3.22;;;;;;;;;;4974498;28;20039;-73
2021/09/03 11:32:32;;;;;;;4.72;3.03;;;;;;;;;;4972975;28;20077;-73
2021/09/03 11:35:00;;;;;;;3.63;3.00;;;;;;;;;;4974824;28;20019;-72
2021/09/03 11:37:45;;;;;;;6.75;3.60;;;;;;;;;;4973174;28;20046;-69
2021/09/03 11:40:14;;;;;;;3.85;2.90;;;;;;;;;;4966045;28;20035;-76
2021/09/03 11:42:44;;;;;;;3.83;3.05;;;;;;;;;;4953235;28;20039;-68
2021/09/03 11:45:12;;;;;;;3.95;3.20;;;;;;;;;;4967441;28;20039;-77
2021/09/03 11:47:50;;;;;;;6.68;3.10;;;;;;;;;;4973434;28;20469;-73
2021/09/03 11:50:17;;;;;;;4.03;3.10;;;;;;;;;;4957187;28;20110;-73
2021/09/03 11:52:46;;;;;;;4.25;3.20;;;;;;;;;;4956768;28;20493;-73
2021/09/03 11:55:17;;;;;;;11.48;3.22;;;;;;;;;;4956512;28;20038;-74
2021/09/03 11:57:55;;;;;;;4.32;2.90;;;;;;;;;;4972716;28;20023;-74
2021/09/03 12:00:22;;;;;;;15.15;4.07;;;;;;;;;;4969905;28;20039;-76
2021/09/03 12:02:49;;;;;;;5.30;2.90;;;;;;;;;;4973713;28;20027;-74
2021/09/03 12:05:15;;;;;;;5.88;2.90;;;;;;;;;;4972393;28;20047;-70
2021/09/03 12:07:59;;;;;;;4.50;2.90;;;;;;;;;;4973128;28;20073;-71
2021/09/03 12:10:52;;;;;;;5.22;3.20;;;;;;;;;;4973676;28;20031;-65
2021/09/03 12:13:20;;;;;;;10.53;4.20;;;;;;;;;;4966489;28;20038;-67
2021/09/03 12:15:46;;;;;;;5.30;2.92;;;;;;;;;;4973386;28;20276;-69
2021/09/03 12:18:20;;;;;;;19.25;4.00;;;;;;;;;;4973148;28;20027;-66
2021/09/03 12:20:50;;;;;;;4.45;2.90;;;;;;;;;;4973726;28;20483;-67
2021/09/03 12:23:16;;;;;;;5.43;3.08;;;;;;;;;;4973329;28;20477;-75
2021/09/03 12:25:42;;;;;;;6.10;2.60;;;;;;;;;;4972249;28;20033;-64
2021/09/03 12:28:13;;;;;;;5.65;3.20;;;;;;;;;;4972418;28;20101;-67
2021/09/03 12:30:40;;;;;;;4.38;3.45;;;;;;;;;;4972768;28;20161;-71
2021/09/03 12:33:32;;;;;;;3.40;2.85;;;;;;;;;;4971808;28;20274;-68
2021/09/03 12:36:04;;;;;;;4.47;2.90;;;;;;;;;;4946029;28;20544;-66
2021/09/03 12:38:40;;;;;;;4.43;2.90;;;;;;;;;;4967903;28;20038;-70
2021/09/03 12:41:08;;;;;;;7.45;3.13;;;;;;;;;;4973622;28;20029;-72
2021/09/03 12:43:34;;;;;;;5.75;3.40;;;;;;;;;;4973274;28;20027;-69
2021/09/03 12:46:06;;;;;;;8.82;3.30;;;;;;;;;;4966722;28;20027;-71
2021/09/03 12:48:32;;;;;;;8.30;3.30;;;;;;;;;;4969893;28;20498;-67
2021/09/03 12:50:58;;;;;;;13.15;3.25;;;;;;;;;;4972373;28;20529;-62
2021/09/03 12:53:24;;;;;;;5.75;3.50;;;;;;;;;;4969016;28;20459;-70
2021/09/03 12:55:52;;;;;;;10.63;3.78;;;;;;;;;;4972291;28;20381;-64
2021/09/03 12:58:18;;;;;;;4.55;2.85;;;;;;;;;;4970174;28;20101;-67
2021/09/03 13:00:44;;;;;;;3.45;2.90;;;;;;;;;;4971587;28;20054;-75
2021/09/03 13:03:10;;;;;;;6.60;3.22;;;;;;;;;;4972564;28;20042;-62
2021/09/03 13:05:38;;;;;;;5.85;2.90;;;;;;;;;;4971541;28;20101;-61
2021/09/03 13:08:04;;;;;;;2.90;2.60;;;;;;;;;;4971611;28;20519;-65
2021/09/03 13:10:30;;;;;;;4.18;3.05;;;;;;;;;;4973296;28;20034;-62
2021/09/03 13:12:58;;;;;;;6.88;2.90;;;;;;;;;;4973367;28;20023;-71
2021/09/03 13:15:24;;;;;;;6.85;3.72;;;;;;;;;;4972708;28;20062;-65
2021/09/03 13:17:50;;;;;;;13.27;3.72;;;;;;;;;;4971520;28;20031;-74
2021/09/03 13:20:17;;;;;;;3.92;2.80;;;;;;;;;;4971824;28;20046;-65
2021/09/03 13:22:43;;;;;;;5.22;3.40;;;;;;;;;;4973057;28;20022;-73
2021/09/03 13:25:09;;;;;;;4.75;2.97;;;;;;;;;;4972685;28;20035;-71
2021/09/03 13:27:35;;;;;;;8.05;4.38;;;;;;;;;;4970930;28;20038;-64
2021/09/03 13:30:01;;;;;;;10.57;4.05;;;;;;;;;;4971417;28;20404;-75
2021/09/03 13:32:27;;;;;;;5.68;2.80;;;;;;;;;;4955640;28;20138;-75
2021/09/03 13:34:53;;;;;;;8.50;3.47;;;;;;;;;;4969206;28;20043;-70
2021/09/03 13:37:20;;;;;;;5.22;3.22;;;;;;;;;;4972243;28;20054;-67
2021/09/03 13:39:47;;;;;;;4.93;3.10;;;;;;;;;;4971995;28;20030;-68
2021/09/03 13:42:14;;;;;;;5.85;2.83;;;;;;;;;;4981823;28;20015;-69
2021/09/03 13:44:41;;;;;;;3.55;2.80;;;;;;;;;;4971907;28;20039;-66
2021/09/03 13:47:07;;;;;;;4.13;3.00;;;;;;;;;;4973091;28;20027;-63
2021/09/03 13:49:33;;;;;;;6.47;3.22;;;;;;;;;;4976803;28;20031;-69
2021/09/03 13:51:59;;;;;;;5.53;2.85;;;;;;;;;;4976235;28;20053;-68
2021/09/03 13:54:25;;;;;;;8.20;3.10;;;;;;;;;;4976438;28;20101;-72
2021/09/03 13:56:52;;;;;;;3.75;2.92;;;;;;;;;;4975398;28;20018;-66
2021/09/03 13:59:18;;;;;;;3.75;3.00;;;;;;;;;;4976651;28;20133;-63
2021/09/03 14:01:44;;;;;;;3.92;3.00;;;;;;;;;;4968987;28;20026;-63
2021/09/03 14:04:10;;;;;;;6.65;3.00;;;;;;;;;;4975432;28;20050;-62
2021/09/03 14:06:37;;;;;;;4.45;3.00;;;;;;;;;;4976428;28;20018;-67
2021/09/03 14:09:03;;;;;;;4.30;3.17;;;;;;;;;;4974842;28;20027;-69
2021/09/03 14:11:29;;;;;;;4.38;2.97;;;;;;;;;;4977626;28;20098;-68
2021/09/03 14:13:56;;;;;;;9.45;3.35;;;;;;;;;;4973842;28;20031;-73
2021/09/03 14:16:22;;;;;;;4.63;2.97;;;;;;;;;;4972901;28;20199;-80
2021/09/03 14:18:48;;;;;;;5.95;3.10;;;;;;;;;;4958566;28;20117;-66
2021/09/03 14:21:14;;;;;;;6.30;3.28;;;;;;;;;;4973388;28;20027;-67
2021/09/03 14:23:41;;;;;;;8.57;3.28;;;;;;;;;;4973298;28;20484;-66
2021/09/03 14:26:09;;;;;;;4.13;3.05;;;;;;;;;;4968398;28;20046;-67
2021/09/03 14:28:35;;;;;;;4.65;3.10;;;;;;;;;;4973485;28;20446;-64
2021/09/03 14:31:02;;;;;;;4.30;3.30;;;;;;;;;;4970192;28;20054;-67
2021/09/03 14:33:28;;;;;;;11.23;3.28;;;;;;;;;;4970950;28;20390;-67
2021/09/03 14:35:54;;;;;;;6.38;3.25;;;;;;;;;;4974476;28;20030;-68
2021/09/03 14:38:20;;;;;;;4.50;3.13;;;;;;;;;;4974415;28;20130;-66
2021/09/03 14:40:46;;;;;;;4.10;3.10;;;;;;;;;;4975258;28;20389;-68
2021/09/03 14:43:16;;;;;;;5.50;3.08;;;;;;;;;;4974818;28;20546;-68
2021/09/03 14:45:42;;;;;;;8.35;3.30;;;;;;;;;;4973746;28;20045;-67
2021/09/03 14:48:08;;;;;;;4.22;3.20;;;;;;;;;;4970372;28;20027;-65
2021/09/03 14:50:34;;;;;;;6.28;3.25;;;;;;;;;;4968415;28;20043;-63